createdAt,value
2022-08-10T00:00:54.929Z,18.80
2022-08-10T00:03:21.941Z,18.80
2022-08-10T00:05:55.228Z,18.80
2022-08-10T00:08:25.157Z,18.80
2022-08-10T00:10:53.969Z,18.70
2022-08-10T00:13:22.211Z,18.60
2022-08-10T00:15:54.266Z,18.60
2022-08-10T00:18:35.223Z,18.70
2022-08-10T00:21:08.230Z,18.60
2022-08-10T00:23:36.717Z,18.60
2022-08-10T00:26:05.026Z,18.50
2022-08-10T00:28:32.290Z,18.40
2022-08-10T00:30:59.868Z,18.40
2022-08-10T00:33:27.442Z,18.40
2022-08-10T00:35:54.568Z,18.30
2022-08-10T00:38:21.672Z,18.20
2022-08-10T00:40:48.678Z,18.20
2022-08-10T00:43:15.530Z,18.10
2022-08-10T00:45:59.114Z,18.10
2022-08-10T00:48:31.365Z,18.10
2022-08-10T00:51:00.223Z,18.00
2022-08-10T00:53:28.405Z,18.00
2022-08-10T00:57:14.984Z,18.00
2022-08-10T00:58:43.815Z,17.90
2022-08-10T01:01:11.180Z,17.90
2022-08-10T01:04:58.531Z,17.90
2022-08-10T01:07:14.111Z,17.90
2022-08-10T01:10:05.838Z,17.80
2022-08-10T01:12:46.111Z,17.70
2022-08-10T01:15:36.917Z,17.60
2022-08-10T01:18:18.399Z,17.60
2022-08-10T01:21:08.689Z,17.50
2022-08-10T01:24:30.857Z,17.50
2022-08-10T01:28:05.390Z,17.40
2022-08-10T01:30:34.310Z,17.30
2022-08-10T01:33:19.292Z,17.30
2022-08-10T01:36:10.150Z,17.20
2022-08-10T01:38:41.481Z,17.20
2022-08-10T01:41:28.597Z,17.20
2022-08-10T01:44:20.191Z,17.30
2022-08-10T01:46:57.238Z,17.20
2022-08-10T01:49:26.142Z,17.20
2022-08-10T01:52:00.465Z,17.20
2022-08-10T01:54:29.954Z,17.20
2022-08-10T01:56:58.487Z,17.10
2022-08-10T01:59:32.692Z,17.00
2022-08-10T02:02:04.018Z,16.90
2022-08-10T02:04:34.572Z,16.90
2022-08-10T02:07:02.544Z,17.00
2022-08-10T02:09:33.100Z,17.00
2022-08-10T02:12:08.589Z,17.00
2022-08-10T02:14:58.755Z,16.90
2022-08-10T02:17:57.748Z,16.80
2022-08-10T02:20:25.237Z,16.80
2022-08-10T02:23:17.117Z,16.80
2022-08-10T02:25:46.201Z,16.80
2022-08-10T02:28:30.190Z,16.80
2022-08-10T02:31:02.998Z,16.80
2022-08-10T02:33:36.948Z,16.70
2022-08-10T02:36:07.872Z,16.70
2022-08-10T02:38:58.065Z,16.70
2022-08-10T02:45:13.196Z,16.60
2022-08-10T02:45:18.529Z,16.70
2022-08-10T02:47:58.640Z,16.70
2022-08-10T02:50:33.575Z,16.80
2022-08-10T02:53:55.385Z,16.70
2022-08-10T02:56:18.850Z,16.70
2022-08-10T02:58:51.105Z,16.60
2022-08-10T03:01:23.298Z,16.50
2022-08-10T03:04:14.883Z,16.30
2022-08-10T03:06:45.129Z,16.10
2022-08-10T03:09:15.860Z,16.10
2022-08-10T03:12:35.373Z,16.10
2022-08-10T03:14:32.564Z,16.20
2022-08-10T03:17:01.655Z,16.20
2022-08-10T03:20:33.268Z,16.20
2022-08-10T03:22:19.128Z,16.10
2022-08-10T03:24:46.923Z,16.00
2022-08-10T03:27:15.301Z,16.00
2022-08-10T03:30:29.732Z,15.90
2022-08-10T03:32:33.439Z,15.90
2022-08-10T03:35:01.221Z,15.90
2022-08-10T03:37:28.156Z,15.80
2022-08-10T03:39:55.779Z,15.80
2022-08-10T03:42:23.921Z,15.80
2022-08-10T03:44:52.704Z,15.70
2022-08-10T03:47:21.295Z,15.60
2022-08-10T03:49:50.971Z,15.70
2022-08-10T03:52:19.740Z,15.70
2022-08-10T03:54:47.330Z,15.70
2022-08-10T03:57:14.524Z,15.70
2022-08-10T03:59:41.632Z,15.60
2022-08-10T04:02:44.420Z,15.50
2022-08-10T04:04:56.617Z,15.40
2022-08-10T04:07:23.890Z,15.50
2022-08-10T04:09:55.246Z,15.40
2022-08-10T04:12:24.368Z,15.40
2022-08-10T04:14:53.282Z,15.40
2022-08-10T04:17:56.783Z,15.30
2022-08-10T04:20:34.193Z,15.40
2022-08-10T04:23:06.285Z,15.50
2022-08-10T04:25:33.951Z,15.50
2022-08-10T04:28:01.289Z,15.70
2022-08-10T04:30:32.089Z,15.70
2022-08-10T04:33:02.293Z,15.70
2022-08-10T04:35:31.126Z,15.80
2022-08-10T04:37:59.329Z,16.10
2022-08-10T04:40:29.370Z,16.40
2022-08-10T04:43:07.487Z,16.80
2022-08-10T04:45:47.870Z,17.20
2022-08-10T04:48:40.101Z,17.50
2022-08-10T04:51:05.947Z,17.80
2022-08-10T04:53:34.279Z,18.10
2022-08-10T04:56:21.630Z,18.30
2022-08-10T04:58:59.279Z,18.30
2022-08-10T05:01:26.947Z,18.50
2022-08-10T05:04:38.372Z,18.60
2022-08-10T05:06:51.964Z,18.70
2022-08-10T05:09:18.831Z,19.00
2022-08-10T05:11:45.981Z,19.30
2022-08-10T05:14:12.956Z,19.50
2022-08-10T05:16:39.920Z,19.70
2022-08-10T05:19:07.077Z,19.90
2022-08-10T05:21:59.815Z,20.10
2022-08-10T05:24:20.887Z,20.10
2022-08-10T05:27:00.632Z,20.20
2022-08-10T05:29:36.836Z,20.60
2022-08-10T05:32:04.571Z,20.90
2022-08-10T05:34:31.659Z,20.80
2022-08-10T05:36:58.774Z,20.70
2022-08-10T05:39:31.842Z,21.00
2022-08-10T05:42:01.043Z,21.40
2022-08-10T05:44:29.005Z,21.70
2022-08-10T05:46:56.125Z,21.60
2022-08-10T05:49:23.024Z,21.80
2022-08-10T05:51:50.009Z,21.70
2022-08-10T05:54:17.394Z,21.70
2022-08-10T05:56:54.211Z,21.50
2022-08-10T06:00:10.885Z,21.70
2022-08-10T06:02:38.311Z,22.20
2022-08-10T06:05:16.527Z,22.30
2022-08-10T06:07:53.028Z,21.70
2022-08-10T06:10:31.903Z,21.70
2022-08-10T06:13:57.905Z,22.00
2022-08-10T06:16:27.088Z,22.00
2022-08-10T06:18:55.162Z,22.00
2022-08-10T06:21:22.830Z,22.00
2022-08-10T06:23:52.066Z,22.30
2022-08-10T06:26:21.563Z,22.40
2022-08-10T06:29:02.990Z,22.80
2022-08-10T06:31:48.009Z,23.20
2022-08-10T06:34:21.213Z,23.10
2022-08-10T06:36:48.620Z,22.70
2022-08-10T06:42:28.213Z,22.40
2022-08-10T06:45:03.640Z,23.10
2022-08-10T06:47:53.693Z,23.30
2022-08-10T06:50:34.843Z,23.00
2022-08-10T06:53:18.177Z,23.30
2022-08-10T06:55:59.899Z,23.60
2022-08-10T06:58:39.547Z,23.90
2022-08-10T07:01:12.772Z,24.30
2022-08-10T07:03:45.377Z,24.90
2022-08-10T07:06:14.009Z,24.60
2022-08-10T07:08:41.976Z,24.50
2022-08-10T07:11:12.027Z,24.40
2022-08-10T07:14:15.697Z,24.60
2022-08-10T07:16:28.938Z,24.50
2022-08-10T07:18:58.866Z,24.60
2022-08-10T07:21:27.439Z,24.90
2022-08-10T07:24:00.403Z,25.40
2022-08-10T07:26:30.184Z,25.60
2022-08-10T07:28:59.206Z,25.30
2022-08-10T07:31:54.486Z,25.10
2022-08-10T07:34:21.652Z,25.20
2022-08-10T07:37:01.429Z,26.10
2022-08-10T07:40:03.908Z,26.30
2022-08-10T07:42:24.620Z,26.10
2022-08-10T07:44:52.142Z,26.20
2022-08-10T07:47:53.140Z,26.20
2022-08-10T07:50:18.742Z,25.90
2022-08-10T07:52:47.619Z,26.20
2022-08-10T07:55:18.451Z,26.50
2022-08-10T07:57:48.624Z,26.50
2022-08-10T08:00:17.083Z,26.80
2022-08-10T08:02:56.702Z,26.70
2022-08-10T08:05:57.227Z,26.70
2022-08-10T08:08:15.931Z,26.70
2022-08-10T08:10:43.343Z,27.10
2022-08-10T08:13:11.594Z,27.90
2022-08-10T08:16:18.438Z,28.20
2022-08-10T08:18:28.791Z,28.30
2022-08-10T08:20:56.084Z,28.40
2022-08-10T08:24:30.365Z,28.20
2022-08-10T08:26:15.607Z,28.30
2022-08-10T08:28:45.632Z,29.50
2022-08-10T08:31:14.919Z,29.20
2022-08-10T08:33:44.243Z,28.70
2022-08-10T08:36:14.356Z,28.30
2022-08-10T08:38:42.626Z,28.20
2022-08-10T08:42:14.361Z,28.80
2022-08-10T08:45:34.893Z,28.70
2022-08-10T08:48:51.467Z,29.50
2022-08-10T08:52:09.985Z,30.50
2022-08-10T08:54:42.305Z,29.40
2022-08-10T08:57:49.716Z,29.40
2022-08-10T09:00:58.994Z,29.30
2022-08-10T09:04:16.120Z,28.70
2022-08-10T09:10:44.658Z,30.40
2022-08-10T09:13:26.818Z,30.40
2022-08-10T09:16:33.018Z,30.60
2022-08-10T09:19:35.138Z,30.70
2022-08-10T09:22:18.193Z,30.80
2022-08-10T09:25:09.239Z,30.60
2022-08-10T09:28:05.452Z,30.90
2022-08-10T09:31:03.618Z,30.10
2022-08-10T09:36:26.578Z,30.50
2022-08-10T09:38:01.258Z,30.60
2022-08-10T09:40:59.334Z,30.60
2022-08-10T09:43:50.652Z,29.90
2022-08-10T09:46:45.795Z,30.10
2022-08-10T09:50:11.490Z,30.90
2022-08-10T10:08:28.597Z,29.40
2022-08-10T10:11:12.425Z,30.30
2022-08-10T10:14:23.730Z,30.60
2022-08-10T10:17:18.092Z,30.50
2022-08-10T10:20:06.653Z,30.40
2022-08-10T10:23:01.425Z,30.00
2022-08-10T10:25:50.581Z,30.20
2022-08-10T10:29:06.856Z,30.30
2022-08-10T10:31:37.836Z,31.00
2022-08-10T10:34:21.761Z,31.60
2022-08-10T10:36:52.245Z,31.00
2022-08-10T10:39:24.034Z,31.00
2022-08-10T10:42:42.240Z,30.70
2022-08-10T10:45:50.309Z,30.00
2022-08-10T10:48:39.732Z,29.80
2022-08-10T10:51:41.542Z,30.20
2022-08-10T10:54:28.391Z,30.80
2022-08-10T10:57:58.535Z,31.20
2022-08-10T11:00:26.053Z,30.70
2022-08-10T11:03:26.805Z,30.30
2022-08-10T11:06:02.097Z,30.90
2022-08-10T11:08:36.418Z,30.70
2022-08-10T11:11:25.331Z,30.90
2022-08-10T11:14:37.542Z,31.10
2022-08-10T11:17:32.376Z,31.00
2022-08-10T11:20:24.641Z,31.00
2022-08-10T11:23:28.721Z,31.30
2022-08-10T11:26:10.680Z,31.10
2022-08-10T11:28:45.175Z,30.70
2022-08-10T11:31:38.111Z,30.30
2022-08-10T11:34:46.792Z,30.80
2022-08-10T11:38:32.724Z,31.40
2022-08-10T11:40:49.272Z,32.10
2022-08-10T11:43:24.163Z,32.10
2022-08-10T11:46:07.810Z,32.30
2022-08-10T11:48:53.789Z,32.20
2022-08-10T11:51:28.749Z,31.00
2022-08-10T11:54:07.786Z,31.00
2022-08-10T11:57:01.933Z,31.30
2022-08-10T11:59:58.058Z,31.80
2022-08-10T12:02:34.050Z,31.80
2022-08-10T12:05:10.783Z,31.40
2022-08-10T12:10:01.775Z,30.30
2022-08-10T12:10:40.705Z,30.50
2022-08-10T12:13:29.731Z,30.80
2022-08-10T12:16:07.928Z,31.20
2022-08-10T12:19:59.975Z,30.50
2022-08-10T12:22:28.154Z,30.40
2022-08-10T12:25:07.504Z,31.10
2022-08-10T12:27:40.540Z,31.30
2022-08-10T12:30:14.757Z,31.70
2022-08-10T12:33:10.691Z,31.80
2022-08-10T12:36:34.525Z,31.00
2022-08-10T12:39:29.681Z,30.90
2022-08-10T12:42:06.361Z,30.90
2022-08-10T12:44:42.991Z,30.60
2022-08-10T12:47:40.347Z,31.10
2022-08-10T12:50:34.407Z,31.60
2022-08-10T12:53:20.128Z,31.30
2022-08-10T12:55:49.879Z,31.20
2022-08-10T12:58:57.340Z,32.10
2022-08-10T13:01:17.701Z,32.70
2022-08-10T13:04:20.780Z,31.80
2022-08-10T13:06:48.390Z,31.30
2022-08-10T13:09:21.524Z,31.50
2022-08-10T13:12:34.129Z,31.50
2022-08-10T13:15:25.348Z,31.20
2022-08-10T13:17:54.588Z,31.60
2022-08-10T13:20:34.297Z,31.30
2022-08-10T13:23:06.169Z,31.10
2022-08-10T13:25:39.056Z,31.30
2022-08-10T13:28:36.688Z,32.20
2022-08-10T13:30:57.657Z,31.60
2022-08-10T13:34:40.944Z,31.00
2022-08-10T13:36:16.271Z,31.30
2022-08-10T13:38:48.838Z,31.90
2022-08-10T13:41:17.311Z,32.10
2022-08-10T13:43:57.339Z,32.30
2022-08-10T13:46:24.567Z,31.20
2022-08-10T13:48:55.707Z,31.00
2022-08-10T13:51:55.079Z,31.10
2022-08-10T13:54:16.262Z,31.50
2022-08-10T13:56:46.803Z,30.70
2022-08-10T13:59:16.061Z,30.50
2022-08-10T14:01:49.651Z,29.90
2022-08-10T14:04:18.933Z,29.90
2022-08-10T14:06:56.478Z,30.00
2022-08-10T14:09:34.203Z,30.00
2022-08-10T14:12:01.845Z,29.90
2022-08-10T14:14:31.168Z,29.80
2022-08-10T14:16:59.188Z,29.70
2022-08-10T14:19:29.773Z,29.30
2022-08-10T14:21:57.384Z,29.20
2022-08-10T14:24:28.943Z,29.10
2022-08-10T14:27:22.696Z,29.00
2022-08-10T14:29:57.549Z,28.90
2022-08-10T14:32:28.209Z,28.90
2022-08-10T14:36:15.658Z,28.80
2022-08-10T14:37:55.909Z,29.00
2022-08-10T14:40:26.831Z,29.10
2022-08-10T14:43:01.477Z,28.90
2022-08-10T14:45:31.745Z,28.90
2022-08-10T14:48:13.976Z,28.80
2022-08-10T14:50:55.630Z,28.80
2022-08-10T14:53:27.381Z,28.70
2022-08-10T14:56:01.009Z,28.60
2022-08-10T14:58:59.346Z,28.60
2022-08-10T15:01:59.437Z,28.50
2022-08-10T15:04:17.265Z,28.50
2022-08-10T15:06:55.874Z,28.50
2022-08-10T15:09:27.854Z,28.60
2022-08-10T15:12:13.651Z,28.70
2022-08-10T15:14:46.971Z,28.80
2022-08-10T15:17:23.568Z,28.90
2022-08-10T15:20:13.284Z,28.90
2022-08-10T15:22:50.018Z,28.80
2022-08-10T15:25:25.150Z,28.70
2022-08-10T15:28:10.879Z,28.80
2022-08-10T15:30:56.558Z,28.50
2022-08-10T15:33:57.398Z,28.50
2022-08-10T15:37:36.090Z,28.70
2022-08-10T15:40:24.244Z,28.60
2022-08-10T15:42:54.969Z,28.40
2022-08-10T15:45:25.726Z,28.60
2022-08-10T15:48:03.308Z,28.60
2022-08-10T15:50:43.960Z,28.40
2022-08-10T15:53:46.917Z,28.50
2022-08-10T15:56:33.702Z,28.40
2022-08-10T15:59:23.333Z,28.50
2022-08-10T16:02:03.805Z,28.50
2022-08-10T16:05:08.807Z,28.40
2022-08-10T16:07:45.778Z,28.50
2022-08-10T16:10:26.110Z,28.50
2022-08-10T16:13:00.850Z,28.40
2022-08-10T16:15:30.277Z,28.60
2022-08-10T16:18:06.075Z,28.40
2022-08-10T16:20:52.982Z,28.30
2022-08-10T16:24:03.397Z,28.30
2022-08-10T16:26:41.345Z,28.30
2022-08-10T16:29:13.572Z,28.30
2022-08-10T16:31:54.189Z,28.40
2022-08-10T16:34:22.640Z,28.50
2022-08-10T16:37:07.291Z,28.40
2022-08-10T16:39:59.702Z,28.30
2022-08-10T16:42:32.579Z,28.20
2022-08-10T16:45:32.980Z,28.20
2022-08-10T16:48:00.962Z,28.20
2022-08-10T16:50:41.521Z,28.20
2022-08-10T16:53:14.579Z,28.20
2022-08-10T16:55:50.652Z,28.20
2022-08-10T16:58:25.090Z,28.20
2022-08-10T17:00:53.376Z,28.20
2022-08-10T17:04:08.548Z,28.20
2022-08-10T17:06:42.540Z,28.30
2022-08-10T17:09:18.215Z,28.20
2022-08-10T17:11:49.065Z,28.20
2022-08-10T17:14:16.882Z,28.10
2022-08-10T17:16:47.164Z,28.10
2022-08-10T17:19:18.563Z,28.10
2022-08-10T17:21:56.986Z,28.00
2022-08-10T17:24:31.773Z,28.10
2022-08-10T17:28:03.134Z,28.00
2022-08-10T17:30:04.837Z,28.00
2022-08-10T17:32:59.275Z,28.00
2022-08-10T17:35:32.430Z,28.00
2022-08-10T17:38:31.810Z,27.90
2022-08-10T17:41:13.656Z,27.90
2022-08-10T17:43:46.558Z,27.80
2022-08-10T17:46:34.243Z,27.80
2022-08-10T17:49:07.710Z,27.70
2022-08-10T17:51:38.442Z,27.70
2022-08-10T17:54:14.556Z,27.70
2022-08-10T17:56:42.483Z,27.70
2022-08-10T17:59:17.361Z,27.60
2022-08-10T18:02:01.858Z,27.60
2022-08-10T18:04:42.087Z,27.50
2022-08-10T18:07:15.107Z,27.50
2022-08-10T18:09:50.962Z,27.40
2022-08-10T18:12:41.004Z,27.30
2022-08-10T18:15:14.104Z,27.30
2022-08-10T18:17:46.490Z,27.30
2022-08-10T18:20:16.513Z,27.20
2022-08-10T18:22:50.583Z,27.20
2022-08-10T18:25:30.548Z,27.10
2022-08-10T18:28:05.002Z,27.00
2022-08-10T18:30:51.175Z,27.00
2022-08-10T18:33:26.579Z,26.90
2022-08-10T18:35:55.633Z,26.90
2022-08-10T18:38:24.342Z,26.80
2022-08-10T18:40:59.519Z,26.70
2022-08-10T18:44:06.035Z,26.60
2022-08-10T18:46:59.518Z,26.60
2022-08-10T18:49:31.761Z,26.50
2022-08-10T18:52:03.674Z,26.40
2022-08-10T18:54:44.743Z,26.30
2022-08-10T18:58:07.851Z,26.30
2022-08-10T19:01:04.376Z,26.20
2022-08-10T19:03:54.326Z,26.20
2022-08-10T19:07:15.146Z,26.00
2022-08-10T19:10:30.020Z,25.90
2022-08-10T19:13:10.383Z,25.80
2022-08-10T19:15:56.390Z,25.70
2022-08-10T19:18:32.240Z,25.50
2022-08-10T19:21:33.081Z,25.50
2022-08-10T19:24:38.450Z,25.50
2022-08-10T19:27:35.751Z,25.30
2022-08-10T19:33:26.208Z,25.30
2022-08-10T19:36:21.023Z,25.10
2022-08-10T19:39:28.647Z,25.10
2022-08-10T19:42:11.855Z,25.00
2022-08-10T19:45:56.076Z,25.00
2022-08-10T19:48:38.432Z,24.90
2022-08-10T19:51:20.130Z,24.90
2022-08-10T19:54:04.964Z,24.80
2022-08-10T19:57:24.223Z,24.80
2022-08-10T20:00:22.852Z,24.70
2022-08-10T20:03:31.758Z,24.70
2022-08-10T20:06:22.653Z,24.60
2022-08-10T20:09:29.312Z,24.40
2022-08-10T20:12:07.094Z,24.30
2022-08-10T20:14:54.360Z,24.20
2022-08-10T20:17:51.423Z,24.10
2022-08-10T20:20:31.503Z,24.10
2022-08-10T20:23:21.062Z,24.00
2022-08-10T20:26:08.410Z,23.80
2022-08-10T20:29:04.142Z,23.80
2022-08-10T20:31:57.062Z,23.90
2022-08-10T20:34:28.086Z,23.80
2022-08-10T20:37:07.899Z,23.70
2022-08-10T20:40:01.043Z,23.70
2022-08-10T20:42:43.483Z,23.60
2022-08-10T20:45:51.830Z,23.60
2022-08-10T20:48:51.921Z,23.50
2022-08-10T20:51:59.225Z,23.40
2022-08-10T20:54:36.826Z,23.30
2022-08-10T20:57:54.413Z,23.30
2022-08-10T21:00:55.559Z,23.30
2022-08-10T21:04:13.505Z,23.20
2022-08-10T21:07:59.871Z,23.20
2022-08-10T21:11:22.096Z,23.10
2022-08-10T21:14:31.730Z,23.10
2022-08-10T21:17:35.077Z,23.10
2022-08-10T21:20:54.089Z,23.00
2022-08-10T21:23:30.279Z,23.00
2022-08-10T21:26:10.156Z,22.90
2022-08-10T21:29:06.831Z,22.90
2022-08-10T21:35:08.844Z,22.70
2022-08-10T21:38:00.706Z,22.70
2022-08-10T21:44:23.860Z,22.60
2022-08-10T21:48:07.403Z,22.60
2022-08-10T21:50:52.978Z,22.60
2022-08-10T21:54:11.571Z,22.50
2022-08-10T21:57:08.771Z,22.40
2022-08-10T22:00:11.898Z,22.30
2022-08-10T22:02:59.427Z,22.20
2022-08-10T22:09:12.063Z,22.20
2022-08-10T22:12:01.448Z,22.10
2022-08-10T22:14:52.823Z,22.00
2022-08-10T22:18:03.678Z,22.00
2022-08-10T22:20:51.008Z,21.90
2022-08-10T22:23:55.433Z,21.80
2022-08-10T22:27:56.688Z,21.90
2022-08-10T22:31:14.997Z,21.80
2022-08-10T22:31:25.745Z,22.20
2022-08-10T22:34:27.026Z,21.80
2022-08-10T22:37:55.463Z,21.80
2022-08-10T22:40:44.659Z,21.70
2022-08-10T22:43:46.474Z,21.70
2022-08-10T22:46:40.190Z,21.60
2022-08-10T22:49:07.498Z,21.50
2022-08-10T22:51:39.550Z,21.60
2022-08-10T22:54:38.875Z,21.50
2022-08-10T22:57:25.414Z,21.50
2022-08-10T22:59:52.534Z,21.50
2022-08-10T23:02:30.541Z,21.40
2022-08-10T23:05:06.852Z,21.40
2022-08-10T23:07:41.672Z,21.40
2022-08-10T23:10:11.773Z,21.40
2022-08-10T23:12:59.519Z,21.40
2022-08-10T23:15:51.476Z,21.30
2022-08-10T23:18:57.670Z,21.20
2022-08-10T23:22:03.221Z,21.20
2022-08-10T23:24:33.871Z,21.10
2022-08-10T23:27:12.494Z,21.10
2022-08-10T23:30:10.632Z,21.00
2022-08-10T23:32:41.034Z,21.00
2022-08-10T23:36:30.007Z,21.00
2022-08-10T23:38:03.473Z,20.90
2022-08-10T23:40:31.839Z,20.90
2022-08-10T23:42:59.556Z,20.80
2022-08-10T23:45:52.666Z,20.80
2022-08-10T23:48:24.253Z,20.80
2022-08-10T23:50:59.372Z,20.70
2022-08-10T23:53:33.736Z,20.60
2022-08-10T23:56:04.639Z,20.60
2022-08-10T23:58:40.006Z,20.50
